Terminal Aerodrome Forecast
Issued by NWS Charleston, SC

Current Version | Previous Version | Text Only | Print | Product List | Glossary On
Versions: 1 2 3 4 5 6 7 8 9 10 11 12 13 14 15 16 17 18 19 20 21 22 23 24 25
000
FTUS42 KCHS 022335
TAFSAV
TAF
KSAV 022335Z 0300/0324 24004KT P6SM SCT035
     FM030500 VRB03KT 5SM BR SCT008 BKN020
     FM030900 03006KT 5SM BR OVC008
     FM031500 08006KT P6SM OVC008=

USA.gov is the U.S. government's official web portal to all federal, state and local government web resources and services.